createdAt,value
2023-09-21T00:01:49.482Z,18.77
2023-09-21T00:04:17.490Z,18.60
2023-09-21T00:06:45.974Z,18.58
2023-09-21T00:09:14.162Z,18.48
2023-09-21T00:11:43.564Z,18.49
2023-09-21T00:14:11.919Z,18.46
2023-09-21T00:16:42.485Z,18.49
2023-09-21T00:19:11.962Z,18.51
2023-09-21T00:21:39.979Z,18.51
2023-09-21T00:24:17.491Z,18.51
2023-09-21T00:26:48.959Z,18.51
2023-09-21T00:29:17.457Z,18.51
2023-09-21T00:31:45.555Z,18.49
2023-09-21T00:34:14.917Z,18.48
2023-09-21T00:36:44.245Z,18.46
2023-09-21T00:39:13.955Z,18.41
2023-09-21T00:41:42.123Z,18.34
2023-09-21T00:44:11.211Z,18.35
2023-09-21T00:46:39.948Z,18.32
2023-09-21T00:49:08.623Z,18.28
2023-09-21T00:51:40.012Z,18.25
2023-09-21T00:54:11.279Z,18.24
2023-09-21T00:56:40.919Z,18.26
2023-09-21T00:59:08.972Z,18.23
2023-09-21T01:01:39.435Z,18.20
2023-09-21T01:04:08.725Z,18.21
2023-09-21T01:06:40.438Z,18.18
2023-09-21T01:09:10.726Z,18.14
2023-09-21T01:11:39.914Z,18.05
2023-09-21T01:14:08.577Z,17.97
2023-09-21T01:16:36.716Z,17.97
2023-09-21T01:19:04.783Z,17.96
2023-09-21T01:21:37.363Z,17.94
2023-09-21T01:24:08.081Z,17.95
2023-09-21T01:26:36.213Z,17.98
2023-09-21T01:29:05.075Z,17.93
2023-09-21T01:31:33.104Z,17.86
2023-09-21T01:34:01.990Z,17.82
2023-09-21T01:36:30.007Z,17.82
2023-09-21T01:38:59.978Z,17.80
2023-09-21T01:41:31.040Z,17.76
2023-09-21T01:43:59.045Z,17.73
2023-09-21T01:46:28.163Z,17.73
2023-09-21T01:48:56.346Z,17.73
2023-09-21T01:51:24.334Z,17.71
2023-09-21T01:53:54.676Z,17.70
2023-09-21T01:56:22.853Z,17.70
2023-09-21T01:58:52.214Z,17.68
2023-09-21T02:01:20.808Z,17.70
2023-09-21T02:03:48.979Z,17.72
2023-09-21T02:06:17.465Z,17.72
2023-09-21T02:08:46.141Z,17.72
2023-09-21T02:11:14.922Z,17.70
2023-09-21T02:13:43.487Z,17.68
2023-09-21T02:16:16.191Z,17.61
2023-09-21T02:18:46.416Z,17.60
2023-09-21T02:21:18.777Z,17.54
2023-09-21T02:23:47.185Z,17.56
2023-09-21T02:26:15.582Z,17.56
2023-09-21T02:28:43.981Z,17.56
2023-09-21T02:31:14.111Z,17.57
2023-09-21T02:33:44.406Z,17.57
2023-09-21T02:36:19.382Z,17.57
2023-09-21T02:38:51.235Z,17.56
2023-09-21T02:41:19.556Z,17.52
2023-09-21T02:43:47.840Z,17.55
2023-09-21T02:46:17.753Z,17.46
2023-09-21T02:48:47.475Z,17.44
2023-09-21T02:51:17.078Z,17.42
2023-09-21T02:53:45.552Z,17.45
2023-09-21T02:56:13.733Z,17.44
2023-09-21T02:58:43.293Z,17.47
2023-09-21T03:01:13.846Z,17.50
2023-09-21T03:03:43.349Z,17.52
2023-09-21T03:06:13.876Z,17.53
2023-09-21T03:08:43.606Z,17.53
2023-09-21T03:11:12.529Z,17.51
2023-09-21T03:13:40.538Z,17.49
2023-09-21T03:16:11.767Z,17.45
2023-09-21T03:18:40.123Z,17.47
2023-09-21T03:21:15.811Z,17.39
2023-09-21T03:23:46.123Z,17.36
2023-09-21T03:26:15.566Z,17.37
2023-09-21T03:28:46.055Z,17.34
2023-09-21T03:31:17.468Z,17.36
2023-09-21T03:33:47.278Z,17.35
2023-09-21T03:36:18.080Z,17.37
2023-09-21T03:38:48.663Z,17.43
2023-09-21T03:41:17.129Z,17.40
2023-09-21T03:43:45.210Z,17.46
2023-09-21T03:46:13.646Z,17.43
2023-09-21T03:48:41.967Z,17.50
2023-09-21T03:51:11.905Z,17.50
2023-09-21T03:53:41.415Z,17.46
2023-09-21T03:56:09.402Z,17.47
2023-09-21T03:58:37.444Z,17.48
2023-09-21T04:01:10.648Z,17.49
2023-09-21T04:03:39.042Z,17.52
2023-09-21T04:06:07.716Z,17.51
2023-09-21T04:08:36.264Z,17.52
2023-09-21T04:11:05.703Z,17.51
2023-09-21T04:13:34.135Z,17.53
2023-09-21T04:16:06.863Z,17.55
2023-09-21T04:18:35.812Z,17.56
2023-09-21T04:21:19.074Z,17.54
2023-09-21T04:23:48.020Z,17.57
2023-09-21T04:26:19.488Z,17.50
2023-09-21T04:28:49.244Z,17.44
2023-09-21T04:31:17.338Z,17.44
2023-09-21T04:33:46.382Z,17.46
2023-09-21T04:36:14.597Z,17.44
2023-09-21T04:38:43.971Z,17.49
2023-09-21T04:41:16.398Z,17.49
2023-09-21T04:43:46.503Z,17.49
2023-09-21T04:46:15.081Z,17.42
2023-09-21T04:48:43.920Z,17.37
2023-09-21T04:51:15.612Z,17.35
2023-09-21T04:53:44.123Z,17.36
2023-09-21T04:56:12.721Z,17.33
2023-09-21T04:58:40.737Z,17.31
2023-09-21T05:01:11.973Z,17.31
2023-09-21T05:03:40.801Z,17.31
2023-09-21T05:06:09.430Z,17.30
2023-09-21T05:08:37.693Z,17.35
2023-09-21T05:11:06.233Z,17.36
2023-09-21T05:13:34.994Z,17.35
2023-09-21T05:16:03.589Z,17.36
2023-09-21T05:18:33.263Z,17.42
2023-09-21T05:21:02.914Z,17.39
2023-09-21T05:23:30.886Z,17.35
2023-09-21T05:25:59.135Z,17.40
2023-09-21T05:28:27.081Z,17.42
2023-09-21T05:30:56.145Z,17.40
2023-09-21T05:33:24.762Z,17.38
2023-09-21T05:35:55.186Z,17.40
2023-09-21T05:38:23.173Z,17.40
2023-09-21T05:40:51.253Z,17.42
2023-09-21T05:43:19.199Z,17.44
2023-09-21T05:45:47.475Z,17.44
2023-09-21T05:48:19.093Z,17.37
2023-09-21T05:50:47.418Z,17.37
2023-09-21T05:53:16.943Z,17.37
2023-09-21T05:55:46.123Z,17.40
2023-09-21T05:58:14.101Z,17.47
2023-09-21T06:00:42.449Z,17.54
2023-09-21T06:03:10.916Z,17.57
2023-09-21T06:05:39.161Z,17.66
2023-09-21T06:08:07.783Z,17.69
2023-09-21T06:10:37.260Z,17.80
2023-09-21T06:13:09.031Z,17.87
2023-09-21T06:15:38.315Z,17.83
2023-09-21T06:18:07.247Z,17.87
2023-09-21T06:20:36.291Z,17.90
2023-09-21T06:23:08.101Z,17.95
2023-09-21T06:25:37.912Z,18.00
2023-09-21T06:28:07.983Z,18.04
2023-09-21T06:30:35.976Z,18.11
2023-09-21T06:33:04.229Z,18.14
2023-09-21T06:35:32.365Z,18.18
2023-09-21T06:38:01.238Z,18.22
2023-09-21T06:40:29.701Z,18.31
2023-09-21T06:42:59.239Z,18.30
2023-09-21T06:45:32.507Z,18.34
2023-09-21T06:48:02.366Z,18.37
2023-09-21T06:50:31.246Z,18.41
2023-09-21T06:52:59.313Z,18.45
2023-09-21T06:55:28.481Z,18.51
2023-09-21T06:57:56.666Z,18.54
2023-09-21T07:00:26.475Z,18.58
2023-09-21T07:02:55.267Z,18.59
2023-09-21T07:05:23.379Z,18.61
2023-09-21T07:07:51.421Z,18.68
2023-09-21T07:10:19.665Z,18.75
2023-09-21T07:12:47.683Z,18.80
2023-09-21T07:15:15.689Z,18.87
2023-09-21T07:17:45.546Z,18.91
2023-09-21T07:20:14.296Z,18.94
2023-09-21T07:22:42.314Z,18.98
2023-09-21T07:25:10.916Z,19.02
2023-09-21T07:27:39.214Z,19.05
2023-09-21T07:30:08.888Z,19.04
2023-09-21T07:32:37.085Z,19.01
2023-09-21T07:35:07.528Z,19.02
2023-09-21T07:37:35.702Z,19.01
2023-09-21T07:40:07.728Z,19.05
2023-09-21T07:42:36.254Z,19.12
2023-09-21T07:45:04.677Z,19.16
2023-09-21T07:47:32.861Z,19.24
2023-09-21T07:50:00.925Z,19.32
2023-09-21T07:52:31.403Z,19.40
2023-09-21T07:55:03.705Z,19.51
2023-09-21T07:57:34.283Z,19.61
2023-09-21T08:00:03.415Z,19.78
2023-09-21T08:02:32.096Z,19.96
2023-09-21T08:05:01.113Z,20.24
2023-09-21T08:07:31.590Z,20.42
2023-09-21T08:10:00.374Z,20.54
2023-09-21T08:12:29.010Z,20.62
2023-09-21T08:14:57.034Z,20.68
2023-09-21T08:17:25.111Z,20.76
2023-09-21T08:19:53.115Z,20.83
2023-09-21T08:22:21.203Z,20.92
2023-09-21T08:24:51.992Z,20.97
2023-09-21T08:27:19.997Z,21.08
2023-09-21T08:29:49.079Z,21.18
2023-09-21T08:32:17.305Z,21.26
2023-09-21T08:34:46.385Z,21.37
2023-09-21T08:37:14.376Z,21.78
2023-09-21T08:39:45.076Z,22.21
2023-09-21T08:42:16.066Z,22.36
2023-09-21T08:44:45.846Z,22.41
2023-09-21T08:47:31.411Z,22.43
2023-09-21T08:50:05.023Z,22.43
2023-09-21T08:52:36.039Z,22.43
2023-09-21T08:55:04.927Z,22.43
2023-09-21T08:57:34.645Z,22.47
2023-09-21T09:00:06.353Z,22.51
2023-09-21T09:02:36.507Z,22.51
2023-09-21T09:05:08.151Z,22.56
2023-09-21T09:07:41.236Z,22.59
2023-09-21T09:10:12.059Z,22.62
2023-09-21T09:12:42.658Z,22.70
2023-09-21T09:15:12.209Z,22.76
2023-09-21T09:17:41.686Z,22.82
2023-09-21T09:20:11.004Z,22.93
2023-09-21T09:22:39.952Z,23.12
2023-09-21T09:25:10.821Z,23.41
2023-09-21T09:27:46.292Z,23.84
2023-09-21T09:30:14.952Z,24.24
2023-09-21T09:32:43.931Z,24.50
2023-09-21T09:35:15.018Z,24.82
2023-09-21T09:37:44.645Z,25.08
2023-09-21T09:40:19.949Z,25.29
2023-09-21T09:42:53.041Z,25.38
2023-09-21T09:45:27.274Z,25.46
2023-09-21T09:47:57.665Z,25.58
2023-09-21T09:50:27.949Z,25.66
2023-09-21T09:53:06.340Z,25.51
2023-09-21T09:55:39.993Z,25.32
2023-09-21T09:58:09.729Z,25.28
2023-09-21T10:00:39.503Z,25.25
2023-09-21T10:03:10.833Z,25.25
2023-09-21T10:05:40.160Z,25.20
2023-09-21T10:08:09.973Z,25.27
2023-09-21T10:10:45.482Z,25.30
2023-09-21T10:13:18.096Z,25.43
2023-09-21T10:15:52.235Z,25.53
2023-09-21T10:18:31.217Z,25.55
2023-09-21T10:21:00.073Z,25.61
2023-09-21T10:23:29.413Z,25.66
2023-09-21T10:25:57.958Z,25.83
2023-09-21T10:28:44.221Z,25.95
2023-09-21T10:31:24.251Z,26.04
2023-09-21T10:34:15.230Z,26.01
2023-09-21T10:36:47.178Z,26.04
2023-09-21T10:39:27.263Z,26.07
2023-09-21T10:41:57.716Z,26.15
2023-09-21T10:45:04.321Z,26.13
2023-09-21T10:47:39.805Z,26.15
2023-09-21T10:50:11.579Z,26.15
2023-09-21T10:52:43.755Z,26.11
2023-09-21T10:55:14.364Z,26.11
2023-09-21T10:57:43.658Z,26.23
2023-09-21T11:00:19.680Z,26.25
2023-09-21T11:02:50.873Z,26.37
2023-09-21T11:05:21.276Z,26.65
2023-09-21T11:07:53.087Z,27.00
2023-09-21T11:10:22.022Z,27.24
2023-09-21T11:12:50.571Z,27.40
2023-09-21T11:15:20.602Z,27.70
2023-09-21T11:17:49.636Z,27.90
2023-09-21T11:20:21.918Z,28.09
2023-09-21T11:22:52.933Z,28.16
2023-09-21T11:25:24.009Z,28.30
2023-09-21T11:28:00.560Z,28.59
2023-09-21T11:30:30.606Z,28.87
2023-09-21T11:32:59.990Z,28.57
2023-09-21T11:35:29.749Z,28.30
2023-09-21T11:38:00.815Z,28.19
2023-09-21T11:40:29.053Z,28.11
2023-09-21T11:43:01.508Z,28.17
2023-09-21T11:45:31.365Z,28.04
2023-09-21T11:48:00.843Z,28.15
2023-09-21T11:50:31.900Z,28.38
2023-09-21T11:53:01.795Z,28.60
2023-09-21T11:55:30.844Z,28.69
2023-09-21T11:58:08.093Z,28.53
2023-09-21T12:00:50.529Z,28.62
2023-09-21T12:03:22.949Z,28.63
2023-09-21T12:05:52.880Z,28.45
2023-09-21T12:08:23.193Z,28.57
2023-09-21T12:10:53.837Z,28.84
2023-09-21T12:13:22.285Z,29.03
2023-09-21T12:15:56.777Z,29.29
2023-09-21T12:18:28.377Z,29.31
2023-09-21T12:20:59.130Z,29.35
2023-09-21T12:23:28.050Z,29.30
2023-09-21T12:25:57.385Z,29.09
2023-09-21T12:28:25.830Z,28.92
2023-09-21T12:30:55.987Z,28.79
2023-09-21T12:35:55.620Z,28.41
2023-09-21T12:38:23.866Z,28.26
2023-09-21T12:40:54.269Z,28.08
2023-09-21T12:43:22.826Z,28.00
2023-09-21T12:45:51.681Z,28.02
2023-09-21T12:48:21.352Z,28.03
2023-09-21T12:50:49.489Z,28.03
2023-09-21T12:53:17.582Z,28.15
2023-09-21T12:55:47.545Z,28.11
2023-09-21T12:58:15.801Z,28.12
2023-09-21T13:00:44.051Z,28.19
2023-09-21T13:03:14.448Z,28.14
2023-09-21T13:05:46.542Z,28.14
2023-09-21T13:08:18.415Z,28.11
2023-09-21T13:10:46.562Z,28.14
2023-09-21T13:13:14.849Z,27.95
2023-09-21T13:15:42.974Z,27.92
2023-09-21T13:18:12.424Z,27.81
2023-09-21T13:20:40.676Z,27.53
2023-09-21T13:23:11.207Z,27.50
2023-09-21T13:25:39.681Z,27.59
2023-09-21T13:28:08.085Z,27.71
2023-09-21T13:30:36.776Z,27.84
2023-09-21T13:33:05.646Z,27.87
2023-09-21T13:35:35.041Z,27.88
2023-09-21T13:38:03.234Z,27.78
2023-09-21T13:40:33.025Z,27.86
2023-09-21T13:43:02.112Z,27.88
2023-09-21T13:45:30.666Z,27.71
2023-09-21T13:47:59.144Z,27.60
2023-09-21T13:50:27.232Z,27.55
2023-09-21T13:52:55.325Z,27.49
2023-09-21T13:55:25.422Z,27.45
2023-09-21T13:57:55.666Z,27.62
2023-09-21T14:00:23.903Z,27.74
2023-09-21T14:02:52.245Z,27.93
2023-09-21T14:05:24.297Z,28.07
2023-09-21T14:07:52.913Z,28.18
2023-09-21T14:10:21.417Z,28.04
2023-09-21T14:12:51.965Z,28.07
2023-09-21T14:15:22.625Z,27.91
2023-09-21T14:17:50.862Z,27.83
2023-09-21T14:20:20.451Z,27.78
2023-09-21T14:22:48.573Z,27.70
2023-09-21T14:25:17.131Z,27.68
2023-09-21T14:27:45.605Z,27.83
2023-09-21T14:30:16.703Z,27.97
2023-09-21T14:32:48.233Z,28.10
2023-09-21T14:35:16.657Z,28.05
2023-09-21T14:37:44.797Z,27.91
2023-09-21T14:40:13.875Z,27.91
2023-09-21T14:42:42.128Z,27.89
2023-09-21T14:45:11.181Z,27.81
2023-09-21T14:47:39.556Z,27.74
2023-09-21T14:50:10.803Z,27.59
2023-09-21T14:52:39.151Z,27.50
2023-09-21T14:55:07.958Z,27.40
2023-09-21T14:57:36.093Z,27.34
2023-09-21T15:00:08.117Z,27.30
2023-09-21T15:02:37.513Z,27.46
2023-09-21T15:05:08.187Z,27.23
2023-09-21T15:07:38.647Z,27.31
2023-09-21T15:10:07.682Z,27.19
2023-09-21T15:12:36.205Z,27.07
2023-09-21T15:15:04.930Z,27.09
2023-09-21T15:17:33.158Z,27.06
2023-09-21T15:20:01.546Z,27.02
2023-09-21T15:22:30.047Z,27.01
2023-09-21T15:25:00.164Z,26.90
2023-09-21T15:27:29.044Z,26.84
2023-09-21T15:29:57.475Z,26.75
2023-09-21T15:32:25.909Z,26.73
2023-09-21T15:34:54.445Z,26.67
2023-09-21T15:37:23.141Z,26.65
2023-09-21T15:39:51.175Z,26.65
2023-09-21T15:42:21.556Z,26.59
2023-09-21T15:44:49.847Z,26.50
2023-09-21T15:47:17.970Z,26.48
2023-09-21T15:49:46.423Z,26.42
2023-09-21T15:52:14.619Z,26.31
2023-09-21T15:54:42.748Z,26.24
2023-09-21T15:57:11.584Z,26.14
2023-09-21T15:59:41.273Z,26.08
2023-09-21T16:02:10.693Z,26.03
2023-09-21T16:04:39.479Z,26.01
2023-09-21T16:07:07.760Z,25.89
2023-09-21T16:09:35.783Z,25.90
2023-09-21T16:12:04.058Z,25.86
2023-09-21T16:14:32.237Z,25.83
2023-09-21T16:17:04.405Z,25.74
2023-09-21T16:19:32.698Z,25.67
2023-09-21T16:22:01.029Z,25.62
2023-09-21T16:24:31.294Z,25.59
2023-09-21T16:27:00.099Z,25.52
2023-09-21T16:29:28.252Z,25.46
2023-09-21T16:31:56.512Z,25.43
2023-09-21T16:34:27.150Z,25.37
2023-09-21T16:36:55.399Z,25.34
2023-09-21T16:39:25.273Z,25.29
2023-09-21T16:41:53.434Z,25.23
2023-09-21T16:44:22.184Z,25.16
2023-09-21T16:46:50.822Z,25.08
2023-09-21T16:49:21.978Z,25.02
2023-09-21T16:51:51.514Z,24.95
2023-09-21T16:54:19.829Z,24.91
2023-09-21T16:56:49.009Z,24.85
2023-09-21T16:59:17.583Z,24.82
2023-09-21T17:01:45.889Z,24.72
2023-09-21T17:04:14.371Z,24.64
2023-09-21T17:06:42.486Z,24.57
2023-09-21T17:09:13.142Z,24.49
2023-09-21T17:11:41.508Z,24.44
2023-09-21T17:14:09.514Z,24.38
2023-09-21T17:16:37.824Z,24.31
2023-09-21T17:19:07.306Z,24.27
2023-09-21T17:21:38.243Z,24.21
2023-09-21T17:24:06.938Z,24.20
2023-09-21T17:26:36.720Z,24.17
2023-09-21T17:29:04.866Z,24.14
2023-09-21T17:31:33.228Z,24.10
2023-09-21T17:34:02.384Z,24.01
2023-09-21T17:36:30.772Z,23.97
2023-09-21T17:38:58.925Z,23.89
2023-09-21T17:41:27.950Z,23.85
2023-09-21T17:43:57.998Z,23.80
2023-09-21T17:46:26.405Z,23.75
2023-09-21T17:48:54.658Z,23.63
2023-09-21T17:51:23.065Z,23.56
2023-09-21T17:53:51.146Z,23.51
2023-09-21T17:56:19.496Z,23.46
2023-09-21T17:58:47.757Z,23.41
2023-09-21T18:01:17.959Z,23.36
2023-09-21T18:03:46.476Z,23.36
2023-09-21T18:06:19.603Z,23.35
2023-09-21T18:08:47.733Z,23.33
2023-09-21T18:11:16.800Z,23.33
2023-09-21T18:13:49.357Z,23.29
2023-09-21T18:16:18.831Z,23.30
2023-09-21T18:18:47.943Z,23.27
2023-09-21T18:21:16.399Z,23.25
2023-09-21T18:23:45.082Z,23.21
2023-09-21T18:26:14.556Z,23.22
2023-09-21T18:28:43.372Z,23.22
2023-09-21T18:31:13.012Z,23.21
2023-09-21T18:33:43.366Z,23.20
2023-09-21T18:36:11.890Z,23.23
2023-09-21T18:38:40.036Z,23.21
2023-09-21T18:41:08.128Z,23.19
2023-09-21T18:43:38.772Z,23.18
2023-09-21T18:46:06.913Z,23.20
2023-09-21T18:48:36.018Z,23.17
2023-09-21T18:51:06.825Z,23.16
2023-09-21T18:53:35.053Z,23.11
2023-09-21T18:56:03.458Z,23.08
2023-09-21T18:58:31.459Z,23.03
2023-09-21T19:00:59.750Z,23.08
2023-09-21T19:03:35.763Z,22.94
2023-09-21T19:06:08.456Z,22.72
2023-09-21T19:08:36.717Z,21.72
2023-09-21T19:11:06.164Z,20.69
2023-09-21T19:13:34.347Z,20.11
2023-09-21T19:16:03.232Z,19.71
2023-09-21T19:18:31.454Z,19.28
2023-09-21T19:20:59.560Z,19.03
2023-09-21T19:23:30.667Z,18.88
2023-09-21T19:25:58.731Z,18.70
2023-09-21T19:28:28.563Z,18.51
2023-09-21T19:30:57.536Z,18.28
2023-09-21T19:33:25.752Z,18.00
2023-09-21T19:35:55.468Z,17.83
2023-09-21T19:38:24.557Z,17.81
2023-09-21T19:40:54.440Z,17.68
2023-09-21T19:43:22.696Z,17.68
2023-09-21T19:45:50.871Z,17.63
2023-09-21T19:48:19.246Z,17.63
2023-09-21T19:50:47.520Z,17.59
2023-09-21T19:53:16.324Z,17.57
2023-09-21T19:55:44.736Z,17.52
2023-09-21T19:58:15.707Z,17.47
2023-09-21T20:01:01.354Z,17.36
2023-09-21T20:03:32.600Z,17.35
2023-09-21T20:06:04.760Z,17.39
2023-09-21T20:08:33.191Z,17.32
2023-09-21T20:11:11.968Z,17.36
2023-09-21T20:13:42.862Z,17.27
2023-09-21T20:16:12.252Z,17.23
2023-09-21T20:18:40.631Z,17.25
2023-09-21T20:21:12.184Z,17.16
2023-09-21T20:23:41.258Z,17.11
2023-09-21T20:26:11.009Z,17.15
2023-09-21T20:28:39.820Z,17.15
2023-09-21T20:31:11.487Z,17.12
2023-09-21T20:33:39.730Z,17.28
2023-09-21T20:36:08.886Z,17.29
2023-09-21T20:38:37.071Z,17.30
2023-09-21T20:41:05.661Z,17.33
2023-09-21T20:43:33.908Z,17.31
2023-09-21T20:46:02.084Z,17.38
2023-09-21T20:48:32.140Z,17.54
2023-09-21T20:51:00.733Z,17.59
2023-09-21T20:53:29.410Z,17.56
2023-09-21T20:55:57.516Z,17.62
2023-09-21T20:58:25.663Z,17.68
2023-09-21T21:00:53.897Z,17.63
2023-09-21T21:03:24.287Z,17.67
2023-09-21T21:05:53.987Z,17.68
2023-09-21T21:08:25.091Z,17.70
2023-09-21T21:10:53.280Z,17.71
2023-09-21T21:13:21.600Z,17.76
2023-09-21T21:15:49.826Z,17.74
2023-09-21T21:18:18.005Z,17.77
2023-09-21T21:20:46.568Z,17.72
2023-09-21T21:23:16.146Z,17.78
2023-09-21T21:25:47.009Z,17.73
2023-09-21T21:28:15.218Z,17.84
2023-09-21T21:30:43.550Z,17.86
2023-09-21T21:33:11.740Z,17.85
2023-09-21T21:35:40.279Z,17.87
2023-09-21T21:38:08.876Z,17.82
2023-09-21T21:40:41.251Z,17.83
2023-09-21T21:43:09.674Z,17.83
2023-09-21T21:45:37.880Z,17.77
2023-09-21T21:48:07.133Z,17.72
2023-09-21T21:50:35.794Z,17.71
2023-09-21T21:53:04.441Z,17.61
2023-09-21T21:55:36.868Z,17.56
2023-09-21T21:58:06.715Z,17.51
2023-09-21T22:00:40.212Z,17.49
2023-09-21T22:03:08.571Z,17.49
2023-09-21T22:05:39.324Z,17.47
2023-09-21T22:08:07.845Z,17.46
2023-09-21T22:10:37.532Z,17.41
2023-09-21T22:13:07.134Z,17.37
2023-09-21T22:15:37.805Z,17.35
2023-09-21T22:18:08.609Z,17.34
2023-09-21T22:20:37.166Z,17.33
2023-09-21T22:23:06.970Z,17.34
2023-09-21T22:25:36.111Z,17.31
2023-09-21T22:28:05.317Z,17.35
2023-09-21T22:30:35.094Z,17.30
2023-09-21T22:33:03.343Z,17.30
2023-09-21T22:35:32.326Z,17.30
2023-09-21T22:38:13.996Z,17.30
2023-09-21T22:40:43.826Z,17.39
2023-09-21T22:43:12.280Z,17.29
2023-09-21T22:45:42.009Z,17.35
2023-09-21T22:48:10.514Z,17.29
2023-09-21T22:50:39.543Z,17.27
2023-09-21T22:53:12.878Z,17.23
2023-09-21T22:55:43.668Z,17.27
2023-09-21T22:58:13.448Z,17.25
2023-09-21T23:00:44.258Z,17.19
2023-09-21T23:05:44.930Z,17.19
2023-09-21T23:08:13.560Z,17.21
2023-09-21T23:10:41.804Z,17.18
2023-09-21T23:13:10.714Z,17.16
2023-09-21T23:15:40.273Z,17.17
2023-09-21T23:18:11.853Z,17.14
2023-09-21T23:20:40.494Z,17.11
2023-09-21T23:23:09.360Z,17.13
2023-09-21T23:25:38.975Z,17.09
2023-09-21T23:28:10.063Z,17.08
2023-09-21T23:30:41.843Z,17.08
2023-09-21T23:33:14.811Z,17.01
2023-09-21T23:35:44.581Z,17.05
2023-09-21T23:38:16.881Z,17.07
2023-09-21T23:40:45.341Z,17.02
2023-09-21T23:43:13.619Z,17.03
2023-09-21T23:45:42.541Z,17.00
2023-09-21T23:48:12.598Z,16.99
2023-09-21T23:50:41.099Z,17.05
2023-09-21T23:53:15.301Z,16.94
2023-09-21T23:55:47.208Z,16.98
2023-09-21T23:58:16.425Z,17.01
